Terminal Aerodrome Forecast
Issued by NWS Topeka, KS

Home | Current Version | Previous Version | Text Only | Print | Product List | Glossary On
Versions: 1 2 3 4 5 6 7 8 9 10 11 12 13 14
023
FTUS43 KTOP 281126
TAFTOP
TAF
KTOP 281126Z 2812/2912 11011KT P6SM VCSH FEW009 OVC012
     FM281600 16007KT P6SM OVC020
     FM282000 VRB05KT P6SM BKN035
     FM290100 01008KT P6SM FEW009 OVC015
     FM290300 02013G18KT P6SM SHRA OVC009=

USA.gov is the U.S. government's official web portal to all federal, state and local government web resources and services.